sensor_id;sensor_type;location;lat;lon;timestamp;temperature;humidity
61323;DHT22;47203;48.428;11.974;2022-12-18T08:31:14;2.70;56.20
61323;DHT22;47203;48.428;11.974;2022-12-18T08:33:20;2.70;56.40
61323;DHT22;47203;48.428;11.974;2022-12-18T08:35:25;2.70;56.50
61323;DHT22;47203;48.428;11.974;2022-12-18T08:37:38;2.80;56.50
61323;DHT22;47203;48.428;11.974;2022-12-18T08:39:43;2.80;56.50
61323;DHT22;47203;48.428;11.974;2022-12-18T08:41:48;2.80;56.40
61323;DHT22;47203;48.428;11.974;2022-12-18T08:44:11;2.90;56.40
61323;DHT22;47203;48.428;11.974;2022-12-18T08:46:35;2.90;56.30
61323;DHT22;47203;48.428;11.974;2022-12-18T08:48:42;3.00;56.90
61323;DHT22;47203;48.428;11.974;2022-12-18T08:50:54;3.00;56.30
61323;DHT22;47203;48.428;11.974;2022-12-18T08:53:00;3.10;56.30
61323;DHT22;47203;48.428;11.974;2022-12-18T08:55:08;3.10;56.20
61323;DHT22;47203;48.428;11.974;2022-12-18T08:57:14;3.10;56.20
61323;DHT22;47203;48.428;11.974;2022-12-18T08:59:20;3.10;56.10
61323;DHT22;47203;48.428;11.974;2022-12-18T09:01:25;3.10;56.20
61323;DHT22;47203;48.428;11.974;2022-12-18T09:03:34;3.10;56.20
61323;DHT22;47203;48.428;11.974;2022-12-18T09:05:40;3.10;56.10
61323;DHT22;47203;48.428;11.974;2022-12-18T09:07:46;3.10;56.20
61323;DHT22;47203;48.428;11.974;2022-12-18T09:09:51;3.10;56.10
61323;DHT22;47203;48.428;11.974;2022-12-18T09:11:57;3.10;56.00
61323;DHT22;47203;48.428;11.974;2022-12-18T09:14:02;3.10;56.00
61323;DHT22;47203;48.428;11.974;2022-12-18T09:16:08;3.10;56.00
61323;DHT22;47203;48.428;11.974;2022-12-18T09:18:14;3.20;56.10
61323;DHT22;47203;48.428;11.974;2022-12-18T09:20:23;3.20;56.10
61323;DHT22;47203;48.428;11.974;2022-12-18T09:22:30;3.20;56.10
61323;DHT22;47203;48.428;11.974;2022-12-18T09:24:36;3.20;56.10
61323;DHT22;47203;48.428;11.974;2022-12-18T09:26:41;3.30;56.30
61323;DHT22;47203;48.428;11.974;2022-12-18T09:28:49;3.30;56.20
61323;DHT22;47203;48.428;11.974;2022-12-18T09:30:55;3.30;56.10
61323;DHT22;47203;48.428;11.974;2022-12-18T09:33:01;3.40;56.10
61323;DHT22;47203;48.428;11.974;2022-12-18T09:35:08;3.40;56.00
61323;DHT22;47203;48.428;11.974;2022-12-18T09:37:16;3.40;56.00
61323;DHT22;47203;48.428;11.974;2022-12-18T09:39:22;3.40;55.90
61323;DHT22;47203;48.428;11.974;2022-12-18T09:41:39;3.50;55.90
61323;DHT22;47203;48.428;11.974;2022-12-18T09:43:51;3.50;55.70
61323;DHT22;47203;48.428;11.974;2022-12-18T09:46:04;3.50;55.80
61323;DHT22;47203;48.428;11.974;2022-12-18T09:48:17;3.50;55.70
61323;DHT22;47203;48.428;11.974;2022-12-18T09:50:30;3.50;55.70
61323;DHT22;47203;48.428;11.974;2022-12-18T09:52:43;3.60;55.70
61323;DHT22;47203;48.428;11.974;2022-12-18T09:54:58;3.60;55.60
61323;DHT22;47203;48.428;11.974;2022-12-18T09:57:09;3.60;55.50
61323;DHT22;47203;48.428;11.974;2022-12-18T09:59:23;3.60;55.60
61323;DHT22;47203;48.428;11.974;2022-12-18T10:01:32;3.60;55.50
61323;DHT22;47203;48.428;11.974;2022-12-18T10:03:45;3.60;55.50
61323;DHT22;47203;48.428;11.974;2022-12-18T10:05:58;3.60;55.50
61323;DHT22;47203;48.428;11.974;2022-12-18T10:08:18;3.60;55.30
61323;DHT22;47203;48.428;11.974;2022-12-18T10:10:36;3.60;55.20
61323;DHT22;47203;48.428;11.974;2022-12-18T10:12:53;3.60;55.10
61323;DHT22;47203;48.428;11.974;2022-12-18T10:15:13;3.60;55.10
61323;DHT22;47203;48.428;11.974;2022-12-18T10:17:35;3.60;55.20
61323;DHT22;47203;48.428;11.974;2022-12-18T10:19:52;3.50;55.20
61323;DHT22;47203;48.428;11.974;2022-12-18T10:22:21;3.50;55.30
61323;DHT22;47203;48.428;11.974;2022-12-18T10:24:46;3.50;55.20
61323;DHT22;47203;48.428;11.974;2022-12-18T10:27:09;3.50;55.30
61323;DHT22;47203;48.428;11.974;2022-12-18T10:29:19;3.50;55.30
61323;DHT22;47203;48.428;11.974;2022-12-18T10:31:24;3.50;55.40
61323;DHT22;47203;48.428;11.974;2022-12-18T10:33:32;3.50;55.50
61323;DHT22;47203;48.428;11.974;2022-12-18T10:35:41;3.50;55.30
61323;DHT22;47203;48.428;11.974;2022-12-18T10:38:04;3.50;55.90
61323;DHT22;47203;48.428;11.974;2022-12-18T10:40:16;3.50;55.20
61323;DHT22;47203;48.428;11.974;2022-12-18T10:42:24;3.50;55.30
61323;DHT22;47203;48.428;11.974;2022-12-18T10:44:29;3.50;55.40
61323;DHT22;47203;48.428;11.974;2022-12-18T10:46:34;3.50;55.40
61323;DHT22;47203;48.428;11.974;2022-12-18T10:48:49;3.50;55.50
61323;DHT22;47203;48.428;11.974;2022-12-18T10:50:57;3.60;55.40
61323;DHT22;47203;48.428;11.974;2022-12-18T10:53:19;3.60;55.50
61323;DHT22;47203;48.428;11.974;2022-12-18T10:55:32;3.60;55.50
61323;DHT22;47203;48.428;11.974;2022-12-18T10:57:40;3.60;55.40
61323;DHT22;47203;48.428;11.974;2022-12-18T10:59:51;3.60;55.40
61323;DHT22;47203;48.428;11.974;2022-12-18T11:01:58;3.70;55.30
61323;DHT22;47203;48.428;11.974;2022-12-18T11:04:08;3.70;55.30
61323;DHT22;47203;48.428;11.974;2022-12-18T11:06:15;3.70;55.30
61323;DHT22;47203;48.428;11.974;2022-12-18T11:08:23;3.70;55.30
61323;DHT22;47203;48.428;11.974;2022-12-18T11:10:33;3.60;55.20
61323;DHT22;47203;48.428;11.974;2022-12-18T11:12:43;3.70;55.40
61323;DHT22;47203;48.428;11.974;2022-12-18T11:14:50;3.70;55.50
61323;DHT22;47203;48.428;11.974;2022-12-18T11:16:59;3.70;55.50
61323;DHT22;47203;48.428;11.974;2022-12-18T11:19:35;3.70;55.50
61323;DHT22;47203;48.428;11.974;2022-12-18T11:21:42;3.80;55.50
61323;DHT22;47203;48.428;11.974;2022-12-18T11:23:50;3.80;55.60
61323;DHT22;47203;48.428;11.974;2022-12-18T11:26:01;3.90;55.60
61323;DHT22;47203;48.428;11.974;2022-12-18T11:28:29;3.90;55.30
61323;DHT22;47203;48.428;11.974;2022-12-18T11:30:43;3.90;55.10
61323;DHT22;47203;48.428;11.974;2022-12-18T11:32:49;3.90;55.40
61323;DHT22;47203;48.428;11.974;2022-12-18T11:35:03;4.00;55.40
61323;DHT22;47203;48.428;11.974;2022-12-18T11:37:17;4.00;55.30
61323;DHT22;47203;48.428;11.974;2022-12-18T11:39:30;4.10;55.30
61323;DHT22;47203;48.428;11.974;2022-12-18T11:41:48;4.10;55.20
61323;DHT22;47203;48.428;11.974;2022-12-18T11:44:11;4.10;55.10
61323;DHT22;47203;48.428;11.974;2022-12-18T11:46:24;4.10;55.20
61323;DHT22;47203;48.428;11.974;2022-12-18T11:48:41;4.10;55.30
61323;DHT22;47203;48.428;11.974;2022-12-18T11:50:52;4.10;55.20
61323;DHT22;47203;48.428;11.974;2022-12-18T11:52:59;4.20;55.30
61323;DHT22;47203;48.428;11.974;2022-12-18T11:55:12;4.20;55.30
61323;DHT22;47203;48.428;11.974;2022-12-18T11:57:29;4.20;55.20
61323;DHT22;47203;48.428;11.974;2022-12-18T11:59:48;4.20;55.10
61323;DHT22;47203;48.428;11.974;2022-12-18T12:02:14;4.30;55.20
61323;DHT22;47203;48.428;11.974;2022-12-18T12:04:45;4.30;55.10
61323;DHT22;47203;48.428;11.974;2022-12-18T12:07:04;4.30;55.10
61323;DHT22;47203;48.428;11.974;2022-12-18T12:09:24;4.40;55.10
61323;DHT22;47203;48.428;11.974;2022-12-18T12:11:47;4.40;55.10
61323;DHT22;47203;48.428;11.974;2022-12-18T12:14:15;4.40;54.90
61323;DHT22;47203;48.428;11.974;2022-12-18T12:16:37;4.40;54.70
61323;DHT22;47203;48.428;11.974;2022-12-18T12:19:01;4.40;54.80
61323;DHT22;47203;48.428;11.974;2022-12-18T12:21:20;4.40;54.70
61323;DHT22;47203;48.428;11.974;2022-12-18T12:23:39;4.40;54.80
61323;DHT22;47203;48.428;11.974;2022-12-18T12:25:52;4.40;54.70
61323;DHT22;47203;48.428;11.974;2022-12-18T12:28:15;4.40;54.70
61323;DHT22;47203;48.428;11.974;2022-12-18T12:30:38;4.40;54.40
61323;DHT22;47203;48.428;11.974;2022-12-18T12:33:04;4.40;54.40
61323;DHT22;47203;48.428;11.974;2022-12-18T12:35:29;4.40;54.40
61323;DHT22;47203;48.428;11.974;2022-12-18T12:37:46;4.40;54.40
61323;DHT22;47203;48.428;11.974;2022-12-18T12:40:02;4.40;54.40
61323;DHT22;47203;48.428;11.974;2022-12-18T12:42:32;4.40;54.40
61323;DHT22;47203;48.428;11.974;2022-12-18T12:44:58;4.40;54.40
61323;DHT22;47203;48.428;11.974;2022-12-18T12:47:16;4.30;54.20
61323;DHT22;47203;48.428;11.974;2022-12-18T12:49:27;4.30;54.00
61323;DHT22;47203;48.428;11.974;2022-12-18T12:51:59;4.30;54.20
61323;DHT22;47203;48.428;11.974;2022-12-18T12:54:15;4.20;54.10
61323;DHT22;47203;48.428;11.974;2022-12-18T12:56:30;4.10;54.20
61323;DHT22;47203;48.428;11.974;2022-12-18T12:58:51;4.10;54.20
61323;DHT22;47203;48.428;11.974;2022-12-18T13:01:15;4.10;54.20
61323;DHT22;47203;48.428;11.974;2022-12-18T13:03:41;4.00;54.30
61323;DHT22;47203;48.428;11.974;2022-12-18T13:05:56;4.00;54.30
61323;DHT22;47203;48.428;11.974;2022-12-18T13:08:08;4.00;54.50
61323;DHT22;47203;48.428;11.974;2022-12-18T13:10:35;4.00;54.60
61323;DHT22;47203;48.428;11.974;2022-12-18T13:12:52;4.00;54.60
61323;DHT22;47203;48.428;11.974;2022-12-18T13:15:12;4.00;54.70
61323;DHT22;47203;48.428;11.974;2022-12-18T13:17:29;4.00;55.20
61323;DHT22;47203;48.428;11.974;2022-12-18T13:19:38;4.00;54.60
61323;DHT22;47203;48.428;11.974;2022-12-18T13:21:53;4.00;54.60
61323;DHT22;47203;48.428;11.974;2022-12-18T13:24:15;4.00;54.50
61323;DHT22;47203;48.428;11.974;2022-12-18T13:26:31;4.00;54.40
61323;DHT22;47203;48.428;11.974;2022-12-18T13:28:52;4.00;54.60
61323;DHT22;47203;48.428;11.974;2022-12-18T13:30:58;3.90;54.40
61323;DHT22;47203;48.428;11.974;2022-12-18T13:36:17;3.90;54.30
61323;DHT22;47203;48.428;11.974;2022-12-18T13:38:36;3.90;54.60
61323;DHT22;47203;48.428;11.974;2022-12-18T13:40:57;3.90;54.50
61323;DHT22;47203;48.428;11.974;2022-12-18T13:43:20;3.90;54.30
61323;DHT22;47203;48.428;11.974;2022-12-18T13:45:45;3.90;54.40
61323;DHT22;47203;48.428;11.974;2022-12-18T13:47:52;3.80;54.50
61323;DHT22;47203;48.428;11.974;2022-12-18T13:50:00;3.80;54.60
61323;DHT22;47203;48.428;11.974;2022-12-18T13:52:21;3.80;54.60
61323;DHT22;47203;48.428;11.974;2022-12-18T13:54:33;3.80;54.50
61323;DHT22;47203;48.428;11.974;2022-12-18T13:56:44;3.80;54.50
61323;DHT22;47203;48.428;11.974;2022-12-18T13:59:10;3.70;54.50
61323;DHT22;47203;48.428;11.974;2022-12-18T14:01:26;3.80;54.40
61323;DHT22;47203;48.428;11.974;2022-12-18T14:03:32;3.80;54.60
61323;DHT22;47203;48.428;11.974;2022-12-18T14:05:37;3.70;54.50
61323;DHT22;47203;48.428;11.974;2022-12-18T14:07:48;3.70;55.20
61323;DHT22;47203;48.428;11.974;2022-12-18T14:09:57;3.70;54.40
61323;DHT22;47203;48.428;11.974;2022-12-18T14:12:27;3.70;54.50
61323;DHT22;47203;48.428;11.974;2022-12-18T14:14:50;3.70;54.50
61323;DHT22;47203;48.428;11.974;2022-12-18T14:16:58;3.70;54.40
61323;DHT22;47203;48.428;11.974;2022-12-18T14:19:12;3.60;54.50
61323;DHT22;47203;48.428;11.974;2022-12-18T14:21:23;3.60;54.60
61323;DHT22;47203;48.428;11.974;2022-12-18T14:23:36;3.60;54.60
61323;DHT22;47203;48.428;11.974;2022-12-18T14:25:46;3.60;54.50
61323;DHT22;47203;48.428;11.974;2022-12-18T14:27:59;3.60;54.50
61323;DHT22;47203;48.428;11.974;2022-12-18T14:30:23;3.60;54.50
61323;DHT22;47203;48.428;11.974;2022-12-18T14:32:31;3.60;54.50
61323;DHT22;47203;48.428;11.974;2022-12-18T14:34:36;3.50;54.60
61323;DHT22;47203;48.428;11.974;2022-12-18T14:36:51;3.50;54.80
61323;DHT22;47203;48.428;11.974;2022-12-18T14:39:00;3.50;54.70
61323;DHT22;47203;48.428;11.974;2022-12-18T14:41:11;3.50;54.80
61323;DHT22;47203;48.428;11.974;2022-12-18T14:43:18;3.50;54.80
61323;DHT22;47203;48.428;11.974;2022-12-18T14:45:35;3.50;54.80
61323;DHT22;47203;48.428;11.974;2022-12-18T14:47:44;3.60;54.50
61323;DHT22;47203;48.428;11.974;2022-12-18T14:49:49;3.60;54.60
61323;DHT22;47203;48.428;11.974;2022-12-18T14:51:56;3.50;54.60
61323;DHT22;47203;48.428;11.974;2022-12-18T14:54:15;3.50;54.50
61323;DHT22;47203;48.428;11.974;2022-12-18T14:56:24;3.50;54.40
61323;DHT22;47203;48.428;11.974;2022-12-18T14:58:32;3.50;54.50
61323;DHT22;47203;48.428;11.974;2022-12-18T15:00:41;3.50;54.50
61323;DHT22;47203;48.428;11.974;2022-12-18T15:02:49;3.50;54.50
61323;DHT22;47203;48.428;11.974;2022-12-18T15:05:01;3.50;54.50
61323;DHT22;47203;48.428;11.974;2022-12-18T15:07:17;3.40;54.50
61323;DHT22;47203;48.428;11.974;2022-12-18T15:09:26;3.40;54.60
61323;DHT22;47203;48.428;11.974;2022-12-18T15:11:35;3.40;54.60
61323;DHT22;47203;48.428;11.974;2022-12-18T15:13:48;3.40;54.70
61323;DHT22;47203;48.428;11.974;2022-12-18T15:15:55;3.40;54.70
61323;DHT22;47203;48.428;11.974;2022-12-18T15:18:04;3.40;54.70
61323;DHT22;47203;48.428;11.974;2022-12-18T15:20:17;3.40;54.60
61323;DHT22;47203;48.428;11.974;2022-12-18T15:22:26;3.40;54.60
61323;DHT22;47203;48.428;11.974;2022-12-18T15:24:38;3.30;54.60
61323;DHT22;47203;48.428;11.974;2022-12-18T15:26:45;3.30;54.60
61323;DHT22;47203;48.428;11.974;2022-12-18T15:28:52;3.30;54.70
61323;DHT22;47203;48.428;11.974;2022-12-18T15:31:05;3.30;54.80
61323;DHT22;47203;48.428;11.974;2022-12-18T15:33:29;3.30;54.80
61323;DHT22;47203;48.428;11.974;2022-12-18T15:35:36;3.30;54.90
61323;DHT22;47203;48.428;11.974;2022-12-18T15:37:48;3.30;55.50
61323;DHT22;47203;48.428;11.974;2022-12-18T15:39:57;3.30;54.90
61323;DHT22;47203;48.428;11.974;2022-12-18T15:42:02;3.30;54.90
61323;DHT22;47203;48.428;11.974;2022-12-18T15:44:23;3.30;55.00
61323;DHT22;47203;48.428;11.974;2022-12-18T15:46:29;3.30;55.00
61323;DHT22;47203;48.428;11.974;2022-12-18T15:48:38;3.30;55.00
61323;DHT22;47203;48.428;11.974;2022-12-18T15:50:45;3.40;55.00
61323;DHT22;47203;48.428;11.974;2022-12-18T15:52:52;3.40;55.00
61323;DHT22;47203;48.428;11.974;2022-12-18T15:55:02;3.40;55.00
61323;DHT22;47203;48.428;11.974;2022-12-18T15:57:20;3.30;55.00
61323;DHT22;47203;48.428;11.974;2022-12-18T15:59:28;3.40;55.00
61323;DHT22;47203;48.428;11.974;2022-12-18T16:01:34;3.40;55.00
61323;DHT22;47203;48.428;11.974;2022-12-18T16:03:43;3.40;55.00
61323;DHT22;47203;48.428;11.974;2022-12-18T16:05:49;3.40;55.10
61323;DHT22;47203;48.428;11.974;2022-12-18T16:07:55;3.40;55.10
61323;DHT22;47203;48.428;11.974;2022-12-18T16:10:03;3.40;55.10
61323;DHT22;47203;48.428;11.974;2022-12-18T16:12:15;3.40;55.00
61323;DHT22;47203;48.428;11.974;2022-12-18T16:14:24;3.40;55.00
61323;DHT22;47203;48.428;11.974;2022-12-18T16:16:31;3.40;55.00
61323;DHT22;47203;48.428;11.974;2022-12-18T16:18:37;3.40;55.00
61323;DHT22;47203;48.428;11.974;2022-12-18T16:20:43;3.40;55.00
61323;DHT22;47203;48.428;11.974;2022-12-18T16:22:49;3.40;55.00
61323;DHT22;47203;48.428;11.974;2022-12-18T16:24:56;3.40;55.00
61323;DHT22;47203;48.428;11.974;2022-12-18T16:27:04;3.40;55.10
61323;DHT22;47203;48.428;11.974;2022-12-18T16:29:10;3.40;55.00
61323;DHT22;47203;48.428;11.974;2022-12-18T16:31:16;3.40;55.00
61323;DHT22;47203;48.428;11.974;2022-12-18T16:33:21;3.40;55.00
61323;DHT22;47203;48.428;11.974;2022-12-18T16:35:27;3.40;55.00
61323;DHT22;47203;48.428;11.974;2022-12-18T16:37:33;3.50;55.00
61323;DHT22;47203;48.428;11.974;2022-12-18T16:39:39;3.50;55.00
61323;DHT22;47203;48.428;11.974;2022-12-18T16:41:46;3.40;55.00
61323;DHT22;47203;48.428;11.974;2022-12-18T16:43:55;3.40;55.00
61323;DHT22;47203;48.428;11.974;2022-12-18T16:46:01;3.40;55.00
61323;DHT22;47203;48.428;11.974;2022-12-18T16:48:07;3.40;55.00
61323;DHT22;47203;48.428;11.974;2022-12-18T16:50:13;3.40;54.90
61323;DHT22;47203;48.428;11.974;2022-12-18T16:52:20;3.40;55.00
61323;DHT22;47203;48.428;11.974;2022-12-18T16:54:25;3.40;55.00
61323;DHT22;47203;48.428;11.974;2022-12-18T16:56:33;3.40;55.00
61323;DHT22;47203;48.428;11.974;2022-12-18T16:58:40;3.40;55.00
61323;DHT22;47203;48.428;11.974;2022-12-18T17:00:48;3.40;55.00
61323;DHT22;47203;48.428;11.974;2022-12-18T17:02:54;3.40;55.00
61323;DHT22;47203;48.428;11.974;2022-12-18T17:05:00;3.40;55.10
61323;DHT22;47203;48.428;11.974;2022-12-18T17:07:06;3.40;55.00
61323;DHT22;47203;48.428;11.974;2022-12-18T17:09:13;3.40;55.10
61323;DHT22;47203;48.428;11.974;2022-12-18T17:11:19;3.40;55.10
61323;DHT22;47203;48.428;11.974;2022-12-18T17:13:26;3.40;55.60
61323;DHT22;47203;48.428;11.974;2022-12-18T17:15:34;3.40;55.00
61323;DHT22;47203;48.428;11.974;2022-12-18T17:17:43;3.40;55.10
61323;DHT22;47203;48.428;11.974;2022-12-18T17:19:48;3.40;55.10
61323;DHT22;47203;48.428;11.974;2022-12-18T17:21:53;3.40;55.10
61323;DHT22;47203;48.428;11.974;2022-12-18T17:24:00;3.40;55.10
61323;DHT22;47203;48.428;11.974;2022-12-18T17:26:06;3.40;55.10
61323;DHT22;47203;48.428;11.974;2022-12-18T17:28:12;3.40;55.10
61323;DHT22;47203;48.428;11.974;2022-12-18T17:30:17;3.40;55.10
61323;DHT22;47203;48.428;11.974;2022-12-18T17:32:23;3.40;55.10
61323;DHT22;47203;48.428;11.974;2022-12-18T17:34:31;3.40;55.20
61323;DHT22;47203;48.428;11.974;2022-12-18T17:36:38;3.40;55.10
61323;DHT22;47203;48.428;11.974;2022-12-18T17:38:49;3.40;55.10
61323;DHT22;47203;48.428;11.974;2022-12-18T17:40:59;3.40;55.10
61323;DHT22;47203;48.428;11.974;2022-12-18T17:43:07;3.40;55.10
61323;DHT22;47203;48.428;11.974;2022-12-18T17:45:12;3.30;55.10
61323;DHT22;47203;48.428;11.974;2022-12-18T17:47:18;3.40;55.20
61323;DHT22;47203;48.428;11.974;2022-12-18T17:49:25;3.40;55.20
61323;DHT22;47203;48.428;11.974;2022-12-18T17:51:32;3.40;55.20
61323;DHT22;47203;48.428;11.974;2022-12-18T17:53:38;3.40;55.10
61323;DHT22;47203;48.428;11.974;2022-12-18T17:55:53;3.40;55.20
61323;DHT22;47203;48.428;11.974;2022-12-18T17:57:59;3.40;55.10
61323;DHT22;47203;48.428;11.974;2022-12-18T18:00:05;3.40;55.20
61323;DHT22;47203;48.428;11.974;2022-12-18T18:02:12;3.40;55.10
61323;DHT22;47203;48.428;11.974;2022-12-18T18:04:18;3.40;55.10
61323;DHT22;47203;48.428;11.974;2022-12-18T18:06:24;3.40;55.10
61323;DHT22;47203;48.428;11.974;2022-12-18T18:08:34;3.40;55.10
61323;DHT22;47203;48.428;11.974;2022-12-18T18:10:40;3.40;55.10
61323;DHT22;47203;48.428;11.974;2022-12-18T18:12:46;3.40;55.10
61323;DHT22;47203;48.428;11.974;2022-12-18T18:15:04;3.40;55.20
61323;DHT22;47203;48.428;11.974;2022-12-18T18:17:11;3.40;55.10
61323;DHT22;47203;48.428;11.974;2022-12-18T18:19:18;3.40;55.10
61323;DHT22;47203;48.428;11.974;2022-12-18T18:21:25;3.40;55.00
61323;DHT22;47203;48.428;11.974;2022-12-18T18:23:35;3.40;55.10
61323;DHT22;47203;48.428;11.974;2022-12-18T18:25:42;3.40;55.10
61323;DHT22;47203;48.428;11.974;2022-12-18T18:27:47;3.40;55.70
61323;DHT22;47203;48.428;11.974;2022-12-18T18:29:53;3.40;55.10
61323;DHT22;47203;48.428;11.974;2022-12-18T18:31:58;3.40;55.10
61323;DHT22;47203;48.428;11.974;2022-12-18T18:34:04;3.40;55.10
61323;DHT22;47203;48.428;11.974;2022-12-18T18:36:10;3.30;55.00
61323;DHT22;47203;48.428;11.974;2022-12-18T18:38:16;3.40;55.10
61323;DHT22;47203;48.428;11.974;2022-12-18T18:40:24;3.30;55.00
61323;DHT22;47203;48.428;11.974;2022-12-18T18:42:29;3.40;55.00
61323;DHT22;47203;48.428;11.974;2022-12-18T18:44:34;3.30;55.00
61323;DHT22;47203;48.428;11.974;2022-12-18T18:46:47;3.30;55.00
61323;DHT22;47203;48.428;11.974;2022-12-18T18:48:55;3.30;55.00
61323;DHT22;47203;48.428;11.974;2022-12-18T18:51:03;3.30;55.00
61323;DHT22;47203;48.428;11.974;2022-12-18T18:53:12;3.30;54.90
61323;DHT22;47203;48.428;11.974;2022-12-18T18:55:17;3.30;54.90
61323;DHT22;47203;48.428;11.974;2022-12-18T18:57:29;3.30;54.80
61323;DHT22;47203;48.428;11.974;2022-12-18T18:59:34;3.30;54.80
61323;DHT22;47203;48.428;11.974;2022-12-18T19:01:40;3.20;54.80
61323;DHT22;47203;48.428;11.974;2022-12-18T19:03:46;3.20;54.80
61323;DHT22;47203;48.428;11.974;2022-12-18T19:05:53;3.20;54.80
61323;DHT22;47203;48.428;11.974;2022-12-18T19:08:00;3.20;54.80
61323;DHT22;47203;48.428;11.974;2022-12-18T19:10:07;3.20;54.80
61323;DHT22;47203;48.428;11.974;2022-12-18T19:12:13;3.20;54.80
61323;DHT22;47203;48.428;11.974;2022-12-18T19:14:34;3.20;54.90
61323;DHT22;47203;48.428;11.974;2022-12-18T19:16:39;3.20;54.80
61323;DHT22;47203;48.428;11.974;2022-12-18T19:18:47;3.10;54.80
61323;DHT22;47203;48.428;11.974;2022-12-18T19:21:00;3.10;54.80
61323;DHT22;47203;48.428;11.974;2022-12-18T19:23:08;3.10;54.80
61323;DHT22;47203;48.428;11.974;2022-12-18T19:25:14;3.10;54.70
61323;DHT22;47203;48.428;11.974;2022-12-18T19:27:20;3.10;54.70
61323;DHT22;47203;48.428;11.974;2022-12-18T19:29:25;3.10;54.70
61323;DHT22;47203;48.428;11.974;2022-12-18T19:31:33;3.10;54.70
61323;DHT22;47203;48.428;11.974;2022-12-18T19:33:41;3.00;54.60
61323;DHT22;47203;48.428;11.974;2022-12-18T19:35:48;3.00;54.60
61323;DHT22;47203;48.428;11.974;2022-12-18T19:37:53;3.00;54.60
61323;DHT22;47203;48.428;11.974;2022-12-18T19:39:59;3.00;54.70
61323;DHT22;47203;48.428;11.974;2022-12-18T19:42:13;3.00;54.70
61323;DHT22;47203;48.428;11.974;2022-12-18T19:44:27;3.00;54.70
61323;DHT22;47203;48.428;11.974;2022-12-18T19:46:35;3.00;54.70
61323;DHT22;47203;48.428;11.974;2022-12-18T19:48:43;2.90;54.50
61323;DHT22;47203;48.428;11.974;2022-12-18T19:50:49;2.90;54.40
61323;DHT22;47203;48.428;11.974;2022-12-18T19:52:54;2.90;54.40
61323;DHT22;47203;48.428;11.974;2022-12-18T19:55:00;2.90;54.40
61323;DHT22;47203;48.428;11.974;2022-12-18T19:57:05;2.90;54.40
61323;DHT22;47203;48.428;11.974;2022-12-18T19:59:12;2.80;54.40
61323;DHT22;47203;48.428;11.974;2022-12-18T20:01:19;2.80;54.40
61323;DHT22;47203;48.428;11.974;2022-12-18T20:03:29;2.80;54.40
61323;DHT22;47203;48.428;11.974;2022-12-18T20:05:35;2.80;54.50
61323;DHT22;47203;48.428;11.974;2022-12-18T20:07:40;2.70;54.40
61323;DHT22;47203;48.428;11.974;2022-12-18T20:09:46;2.70;54.30
61323;DHT22;47203;48.428;11.974;2022-12-18T20:12:02;2.70;54.30
61323;DHT22;47203;48.428;11.974;2022-12-18T20:14:08;2.70;54.20
61323;DHT22;47203;48.428;11.974;2022-12-18T20:16:14;2.70;54.10
61323;DHT22;47203;48.428;11.974;2022-12-18T20:18:21;2.70;54.10
61323;DHT22;47203;48.428;11.974;2022-12-18T20:20:29;2.60;53.90
61323;DHT22;47203;48.428;11.974;2022-12-18T20:22:35;2.60;53.90
61323;DHT22;47203;48.428;11.974;2022-12-18T20:24:40;2.50;53.90
61323;DHT22;47203;48.428;11.974;2022-12-18T20:26:48;2.50;54.00
61323;DHT22;47203;48.428;11.974;2022-12-18T20:28:54;2.50;53.90
61323;DHT22;47203;48.428;11.974;2022-12-18T20:31:00;2.50;53.90
61323;DHT22;47203;48.428;11.974;2022-12-18T20:33:07;2.40;53.90
61323;DHT22;47203;48.428;11.974;2022-12-18T20:35:12;2.40;54.00
61323;DHT22;47203;48.428;11.974;2022-12-18T20:37:21;2.40;54.00
61323;DHT22;47203;48.428;11.974;2022-12-18T20:39:28;2.40;53.80
61323;DHT22;47203;48.428;11.974;2022-12-18T20:41:33;2.30;53.90
61323;DHT22;47203;48.428;11.974;2022-12-18T20:43:40;2.30;54.10
61323;DHT22;47203;48.428;11.974;2022-12-18T20:45:46;2.30;54.10
61323;DHT22;47203;48.428;11.974;2022-12-18T20:47:52;2.30;54.10
61323;DHT22;47203;48.428;11.974;2022-12-18T20:49:58;2.20;54.10
61323;DHT22;47203;48.428;11.974;2022-12-18T20:52:04;2.20;54.10
61323;DHT22;47203;48.428;11.974;2022-12-18T20:54:13;2.20;54.10
61323;DHT22;47203;48.428;11.974;2022-12-18T20:56:20;2.20;54.20
61323;DHT22;47203;48.428;11.974;2022-12-18T20:58:27;2.20;54.20
61323;DHT22;47203;48.428;11.974;2022-12-18T21:00:34;2.20;54.20
61323;DHT22;47203;48.428;11.974;2022-12-18T21:02:40;2.20;54.30
61323;DHT22;47203;48.428;11.974;2022-12-18T21:04:45;2.20;54.30
61323;DHT22;47203;48.428;11.974;2022-12-18T21:06:51;2.20;54.30
61323;DHT22;47203;48.428;11.974;2022-12-18T21:09:04;2.20;54.30
61323;DHT22;47203;48.428;11.974;2022-12-18T21:11:24;2.20;54.30
61323;DHT22;47203;48.428;11.974;2022-12-18T21:13:43;2.20;54.20
61323;DHT22;47203;48.428;11.974;2022-12-18T21:15:48;2.20;54.40
61323;DHT22;47203;48.428;11.974;2022-12-18T21:18:00;2.20;54.40
61323;DHT22;47203;48.428;11.974;2022-12-18T21:20:07;2.20;54.40
61323;DHT22;47203;48.428;11.974;2022-12-18T21:22:19;2.10;54.40
61323;DHT22;47203;48.428;11.974;2022-12-18T21:24:25;2.20;54.50
61323;DHT22;47203;48.428;11.974;2022-12-18T21:26:36;2.20;54.40
61323;DHT22;47203;48.428;11.974;2022-12-18T21:28:47;2.20;54.40
61323;DHT22;47203;48.428;11.974;2022-12-18T21:30:58;2.20;54.40
61323;DHT22;47203;48.428;11.974;2022-12-18T21:33:03;2.20;54.30
61323;DHT22;47203;48.428;11.974;2022-12-18T21:35:09;2.20;54.30
61323;DHT22;47203;48.428;11.974;2022-12-18T21:37:14;2.20;54.20
61323;DHT22;47203;48.428;11.974;2022-12-18T21:39:20;2.20;54.30
61323;DHT22;47203;48.428;11.974;2022-12-18T21:41:27;2.20;54.30
61323;DHT22;47203;48.428;11.974;2022-12-18T21:43:56;2.20;54.40
61323;DHT22;47203;48.428;11.974;2022-12-18T21:46:10;2.10;54.40
61323;DHT22;47203;48.428;11.974;2022-12-18T21:48:15;2.20;54.50
61323;DHT22;47203;48.428;11.974;2022-12-18T21:50:21;2.20;54.50
61323;DHT22;47203;48.428;11.974;2022-12-18T21:52:26;2.20;54.50
61323;DHT22;47203;48.428;11.974;2022-12-18T21:54:33;2.20;54.50
61323;DHT22;47203;48.428;11.974;2022-12-18T21:56:46;2.20;54.50
61323;DHT22;47203;48.428;11.974;2022-12-18T21:58:55;2.20;54.40
61323;DHT22;47203;48.428;11.974;2022-12-18T22:01:01;2.20;54.50
61323;DHT22;47203;48.428;11.974;2022-12-18T22:03:06;2.20;54.50
61323;DHT22;47203;48.428;11.974;2022-12-18T22:05:20;2.30;54.50
61323;DHT22;47203;48.428;11.974;2022-12-18T22:07:26;2.30;54.50
61323;DHT22;47203;48.428;11.974;2022-12-18T22:09:32;2.30;54.40
61323;DHT22;47203;48.428;11.974;2022-12-18T22:11:38;2.30;54.40
61323;DHT22;47203;48.428;11.974;2022-12-18T22:13:44;2.30;54.30
61323;DHT22;47203;48.428;11.974;2022-12-18T22:15:52;2.30;54.30
61323;DHT22;47203;48.428;11.974;2022-12-18T22:17:57;2.30;54.20